Weather History for Le Mars, IA

Change the Weather History Date:

Sunday, January 26, 2014

  Actual Average Record
Temperature  
Mean Temperature 24 °F -  
Max Temperature 48 °F 25 °F 71 °F (2002)
Min Temperature 1 °F 6 °F -16 °F (1988)
Degree Days  
Heating Degree Days 40    
Moisture  
Dew Point 18 °F    
Average Humidity 65    
Maximum Humidity 81    
Minimum Humidity 44    
Precipitation  
Precipitation 0.00 in - - ()
Sea Level Pressure  
Sea Level Pressure 29.73 in    
Wind  
Wind Speed 21 mph (NW)    
Max Wind Speed 37 mph    
Max Gust Speed 50 mph    
Visibility 9 miles    
Events Rain , Snow    
Averages and records for this station are not official NWS values.
T = Trace of Precipitation, MM = Missing Value Source: NWS Daily Summary

Daily Weather History Graph

Daily Weather History Graph

Search for Another Location

Airport:

Trip Planner

Search our weather history database for the weather conditions in past years. The results will help you decide how hot, cold, wet, or windy it might be!

Date:

Astronomy

Jan. 26, 2014 Rise Set
Actual Time 7:45 AM CST 5:30 PM CST
Civil Twilight 7:14 AM CST 6:00 PM CST
Nautical Twilight 6:40 AM CST 6:34 PM CST
Astronomical Twilight 6:06 AM CST 7:08 PM CST
Moon 3:24 AM CST (1/26) 1:19 PM CST (1/26)
Length of Visible Light 10h 46m
Length of Day
9h 45m
Waning Crescent, 23% of the Moon is Illuminated
Jan 26
Waning Crescent
Jan 30
New
Feb 6
First Quarter
Feb 14
Full
Feb 22
Last Quarter

Hourly Weather History & Observations

Time (CST) Temp. Windchill Dew Point Humidity Pressure Visibility Wind Dir Wind Speed Gust Speed Precip Events Conditions
12:15 AM 46.4 °F 39.0 °F 32.0 °F 57% 29.41 in 10.0 mi NW 19.6 mph 27.6 mph N/A   Mostly Cloudy
12:35 AM 48.2 °F - 32.0 °F 54% 29.41 in 10.0 mi WNW 23.0 mph 36.8 mph N/A   Overcast
12:55 AM 48.2 °F - 32.0 °F 54% 29.43 in 10.0 mi NW 26.5 mph 41.4 mph N/A   Overcast
1:15 AM 46.4 °F 38.3 °F 32.0 °F 57% 29.44 in 10.0 mi NW 23.0 mph 40.3 mph N/A   Overcast
1:35 AM 44.6 °F 35.3 °F 33.8 °F 66% 29.46 in 10.0 mi NW 26.5 mph 41.4 mph N/A   Overcast
1:55 AM 44.6 °F 36.1 °F 32.0 °F 61% 29.47 in 10.0 mi NW 21.9 mph 28.8 mph N/A   Overcast
2:15 AM 44.6 °F 36.1 °F 33.8 °F 66% 29.48 in 10.0 mi NW 21.9 mph 29.9 mph N/A   Overcast
2:35 AM 44.6 °F 35.7 °F 32.0 °F 61% 29.48 in 10.0 mi NW 24.2 mph 39.1 mph N/A   Overcast
2:55 AM 42.8 °F 34.3 °F 32.0 °F 66% 29.50 in 10.0 mi NW 19.6 mph 41.4 mph N/A   Overcast
3:15 AM 42.8 °F 31.3 °F 30.2 °F 61% 29.50 in 10.0 mi NW 36.8 mph 49.5 mph N/A   Overcast
3:35 AM 41.0 °F 30.7 °F 30.2 °F 65% 29.52 in 10.0 mi NNW 25.3 mph 38.0 mph N/A   Overcast
3:55 AM 41.0 °F 31.4 °F 30.2 °F 65% 29.52 in 10.0 mi NW 21.9 mph 35.7 mph N/A   Overcast
4:15 AM 41.0 °F 31.9 °F 30.2 °F 65% 29.53 in 10.0 mi NW 19.6 mph 32.2 mph N/A   Overcast
4:35 AM 41.0 °F 31.4 °F 30.2 °F 65% 29.53 in 10.0 mi NW 21.9 mph 29.9 mph N/A   Overcast
4:55 AM 41.0 °F 31.9 °F 30.2 °F 65% 29.54 in 10.0 mi NW 19.6 mph 28.8 mph N/A   Overcast
5:15 AM 41.0 °F 31.9 °F 30.2 °F 65% 29.54 in 10.0 mi NW 19.6 mph 26.5 mph N/A   Overcast
5:35 AM 39.2 °F 29.0 °F 30.2 °F 70% 29.54 in 10.0 mi NNW 21.9 mph - N/A   Overcast
5:55 AM 39.2 °F 30.8 °F 30.2 °F 70% 29.55 in 10.0 mi NNW 15.0 mph 24.2 mph N/A   Overcast
6:15 AM 39.2 °F 30.8 °F 30.2 °F 70% 29.56 in 10.0 mi NW 15.0 mph 26.5 mph N/A   Overcast
6:35 AM 37.4 °F 28.9 °F 30.2 °F 75% 29.57 in 10.0 mi NW 13.8 mph 25.3 mph N/A   Overcast
6:55 AM 37.4 °F 28.5 °F 28.4 °F 70% 29.59 in 10.0 mi NNW 15.0 mph 25.3 mph N/A   Overcast
7:15 AM 37.4 °F 29.3 °F 28.4 °F 70% 29.58 in 10.0 mi NW 12.7 mph 24.2 mph N/A   Overcast
7:35 AM 35.6 °F 28.0 °F 28.4 °F 75% 29.59 in 10.0 mi NW 10.4 mph - N/A   Overcast
7:55 AM 33.8 °F 27.0 °F 28.4 °F 81% 29.59 in 10.0 mi NW 8.1 mph 17.3 mph N/A   Overcast
8:15 AM 35.6 °F 28.6 °F 28.4 °F 75% 29.58 in 10.0 mi NW 9.2 mph 16.1 mph N/A   Overcast
8:35 AM 35.6 °F 29.2 °F 26.6 °F 70% 29.56 in - NW 8.1 mph - N/A   Overcast
8:55 AM 35.6 °F 32.8 °F 28.4 °F 75% 29.55 in 10.0 mi WNW 3.5 mph - N/A   Overcast
9:15 AM 35.6 °F - 28.4 °F 75% 29.55 in 10.0 mi Calm Calm - N/A   Overcast
9:35 AM 35.6 °F 31.7 °F 28.4 °F 75% 29.54 in 10.0 mi Variable 4.6 mph - N/A   Overcast
9:55 AM 37.4 °F 34.9 °F 28.4 °F 70% 29.54 in 10.0 mi West 3.5 mph - N/A   Overcast
10:15 AM 37.4 °F - 28.4 °F 70% 29.54 in 10.0 mi Calm Calm - N/A   Overcast
10:35 AM 39.2 °F 35.0 °F 30.2 °F 70% 29.54 in 10.0 mi SW 5.8 mph - N/A   Overcast
10:55 AM 39.2 °F 33.6 °F 30.2 °F 70% 29.52 in 10.0 mi SW 8.1 mph - N/A   Overcast
11:15 AM 42.8 °F 37.0 °F 28.4 °F 57% 29.50 in 10.0 mi SW 10.4 mph - N/A   Mostly Cloudy
11:35 AM 42.8 °F 35.4 °F 28.4 °F 57% 29.49 in 10.0 mi West 15.0 mph - N/A   Partly Cloudy
11:55 AM 48.2 °F - 30.2 °F 50% 29.49 in 10.0 mi WNW 23.0 mph 33.4 mph N/A   Partly Cloudy
12:15 PM 48.2 °F - 28.4 °F 46% 29.48 in 10.0 mi WNW 28.8 mph 39.1 mph N/A   Mostly Cloudy
12:35 PM 48.2 °F - 28.4 °F 46% 29.48 in 10.0 mi WNW 25.3 mph 44.9 mph N/A   Mostly Cloudy
12:55 PM 46.4 °F 36.4 °F 32.0 °F 57% 29.49 in 8.0 mi WNW 35.7 mph 46.0 mph N/A   Light Drizzle
1:15 PM 32.0 °F 20.1 °F 24.8 °F 75% 29.54 in 9.0 mi NNE 19.6 mph 36.8 mph N/A   Mostly Cloudy
1:35 PM 30.2 °F 15.4 °F 21.2 °F 69% 29.58 in 10.0 mi North 28.8 mph 39.1 mph N/A   Overcast
1:55 PM 30.2 °F 16.8 °F 19.4 °F 64% 29.62 in 10.0 mi NNW 23.0 mph 34.5 mph N/A   Overcast
2:15 PM 32.0 °F 19.5 °F 19.4 °F 60% 29.63 in 10.0 mi NNW 21.9 mph 29.9 mph N/A   Overcast
2:35 PM 32.0 °F 17.9 °F 15.8 °F 51% 29.64 in 10.0 mi NNW 28.8 mph 36.8 mph N/A   Overcast
2:55 PM 32.0 °F 17.0 °F 12.2 °F 44% 29.68 in 10.0 mi NW 33.4 mph 42.6 mph N/A   Overcast
3:15 PM 26.6 °F 12.7 °F 17.6 °F 69% 29.72 in 9.0 mi North 20.7 mph 38.0 mph N/A   Overcast
3:35 PM 24.8 °F 9.0 °F 15.8 °F 69% 29.75 in 6.0 mi NNW 25.3 mph 32.2 mph N/A Rain Light Freezing Rain
3:55 PM 23.0 °F 6.6 °F 14.0 °F 68% 29.79 in 2.0 mi NNW 25.3 mph 33.4 mph N/A Snow Light Snow
4:15 PM 23.0 °F 4.4 °F 10.4 °F 59% 29.82 in 10.0 mi NW 34.5 mph 42.6 mph N/A   Mostly Cloudy
4:35 PM 17.6 °F -2.8 °F 10.4 °F 73% 29.88 in 2.0 mi NNW 33.4 mph 49.5 mph N/A Snow Light Snow
4:55 PM 17.6 °F -3.1 °F 3.2 °F 53% 29.91 in 9.0 mi NNW 34.5 mph 46.0 mph N/A   Scattered Clouds
5:15 PM 15.8 °F -3.4 °F 6.8 °F 68% 29.95 in 6.0 mi NNW 26.5 mph 44.9 mph N/A Snow Light Snow
5:35 PM 14.0 °F -6.2 °F 1.4 °F 57% 29.96 in 10.0 mi NNW 27.6 mph 39.1 mph N/A   Scattered Clouds
5:55 PM 12.2 °F -7.5 °F 1.4 °F 62% 30.00 in 10.0 mi NNW 24.2 mph 36.8 mph N/A   Mostly Cloudy
6:15 PM 12.2 °F -7.5 °F -2.2 °F 53% 30.02 in 10.0 mi NNW 24.2 mph 36.8 mph N/A   Mostly Cloudy
6:35 PM 10.4 °F -9.9 °F -4.0 °F 52% 30.05 in 10.0 mi North 24.2 mph 33.4 mph N/A   Mostly Cloudy
6:55 PM 10.4 °F -10.3 °F -0.4 °F 62% 30.07 in 10.0 mi NNW 25.3 mph 36.8 mph N/A   Overcast
7:15 PM 8.6 °F -12.7 °F -5.8 °F 52% 30.10 in 10.0 mi NNW 25.3 mph 36.8 mph N/A   Mostly Cloudy
7:35 PM 8.6 °F -12.3 °F -5.8 °F 52% 30.12 in 10.0 mi NNW 24.2 mph 40.3 mph N/A   Mostly Cloudy
7:55 PM 8.6 °F -12.3 °F -5.8 °F 52% 30.14 in 10.0 mi NNW 24.2 mph 40.3 mph N/A   Overcast
8:15 PM 6.8 °F -15.9 °F -0.4 °F 72% 30.15 in 7.0 mi NNW 27.6 mph 38.0 mph N/A Snow Light Snow
8:35 PM 6.8 °F -14.3 °F 1.4 °F 79% 30.17 in 2.0 mi NW 23.0 mph 34.5 mph N/A Snow Light Snow
8:55 PM 5.0 °F -14.7 °F -0.4 °F 78% 30.18 in 4.0 mi NNW 18.4 mph 27.6 mph N/A Snow Light Snow
9:15 PM 5.0 °F -16.7 °F -2.2 °F 72% 30.19 in 4.0 mi NNW 23.0 mph 29.9 mph N/A   Haze
9:35 PM 5.0 °F -16.2 °F -5.8 °F 61% 30.21 in 10.0 mi NNW 21.9 mph 31.1 mph N/A   Mostly Cloudy
9:55 PM 3.2 °F -15.3 °F -5.8 °F 66% 30.22 in 10.0 mi NNW 15.0 mph 25.3 mph N/A   Mostly Cloudy
10:15 PM 3.2 °F -18.1 °F -7.6 °F 61% 30.23 in 10.0 mi NNW 20.7 mph 27.6 mph N/A   Overcast
10:35 PM 3.2 °F -16.5 °F -2.2 °F 78% 30.24 in 8.0 mi NNW 17.3 mph 24.2 mph N/A   Overcast
10:55 PM 3.2 °F -18.1 °F -2.2 °F 78% 30.26 in 6.0 mi NW 20.7 mph 26.5 mph N/A   Haze
11:15 PM 1.4 °F -21.4 °F -4.0 °F 78% 30.27 in 1.8 mi NW 23.0 mph 36.8 mph N/A Snow Light Snow
11:35 PM 1.4 °F -21.9 °F -9.4 °F 61% 30.28 in 8.0 mi NW 24.2 mph 33.4 mph N/A   Overcast
11:55 PM 1.4 °F -21.0 °F -9.4 °F 61% 30.30 in 10.0 mi NNW 21.9 mph 28.8 mph N/A   Mostly Cloudy